createdAt,value
2022-09-14T00:00:58.668Z,16.40
2022-09-14T00:03:36.414Z,16.42
2022-09-14T00:06:04.817Z,16.40
2022-09-14T00:08:31.231Z,16.40
2022-09-14T00:10:57.558Z,16.36
2022-09-14T00:13:23.941Z,16.34
2022-09-14T00:15:51.987Z,16.33
2022-09-14T00:18:18.308Z,16.31
2022-09-14T00:20:44.647Z,16.27
2022-09-14T00:23:11.005Z,16.30
2022-09-14T00:25:37.346Z,16.25
2022-09-14T00:28:03.795Z,16.28
2022-09-14T00:30:30.273Z,16.28
2022-09-14T00:32:56.622Z,16.31
2022-09-14T00:35:23.081Z,16.36
2022-09-14T00:37:51.181Z,16.41
2022-09-14T00:40:19.082Z,16.46
2022-09-14T00:42:45.475Z,16.47
2022-09-14T00:45:20.671Z,16.57
2022-09-14T00:47:52.378Z,16.62
2022-09-14T00:50:19.452Z,16.66
2022-09-14T00:52:49.066Z,16.65
2022-09-14T00:55:18.275Z,16.72
2022-09-14T00:57:47.780Z,16.79
2022-09-14T01:00:18.640Z,16.89
2022-09-14T01:02:45.266Z,16.83
2022-09-14T01:05:16.352Z,16.92
2022-09-14T01:07:51.320Z,16.96
2022-09-14T01:10:18.027Z,16.95
2022-09-14T01:12:47.443Z,17.00
2022-09-14T01:15:35.724Z,17.00
2022-09-14T01:18:09.219Z,17.07
2022-09-14T01:20:44.434Z,17.12
2022-09-14T01:23:32.205Z,17.11
2022-09-14T01:26:50.029Z,17.15
2022-09-14T01:29:36.417Z,17.14
2022-09-14T01:32:13.898Z,17.17
2022-09-14T01:34:46.285Z,17.16
2022-09-14T01:37:16.394Z,17.19
2022-09-14T01:39:50.867Z,17.11
2022-09-14T01:42:18.657Z,17.19
2022-09-14T01:44:49.310Z,17.17
2022-09-14T01:47:22.083Z,17.13
2022-09-14T01:50:06.406Z,17.12
2022-09-14T01:52:48.784Z,17.11
2022-09-14T01:55:19.114Z,17.14
2022-09-14T01:57:52.151Z,17.10
2022-09-14T02:00:22.160Z,17.13
2022-09-14T02:03:04.773Z,17.03
2022-09-14T02:05:40.941Z,17.07
2022-09-14T02:08:08.798Z,16.98
2022-09-14T02:10:35.939Z,17.00
2022-09-14T02:13:03.354Z,16.98
2022-09-14T02:15:29.918Z,16.88
2022-09-14T02:17:56.528Z,17.01
2022-09-14T02:20:48.909Z,16.91
2022-09-14T02:23:16.087Z,16.89
2022-09-14T02:25:42.634Z,16.85
2022-09-14T02:28:09.053Z,16.66
2022-09-14T02:30:49.797Z,16.68
2022-09-14T02:33:41.879Z,16.62
2022-09-14T02:36:16.570Z,16.68
2022-09-14T02:38:52.225Z,16.66
2022-09-14T02:41:26.813Z,16.77
2022-09-14T02:44:00.194Z,16.88
2022-09-14T02:46:46.439Z,16.75
2022-09-14T02:49:45.369Z,17.00
2022-09-14T02:52:18.909Z,16.92
2022-09-14T02:54:54.628Z,16.90
2022-09-14T02:57:20.967Z,16.88
2022-09-14T02:59:47.599Z,16.96
2022-09-14T03:02:14.047Z,16.86
2022-09-14T03:04:40.437Z,16.78
2022-09-14T03:07:06.755Z,16.66
2022-09-14T03:09:33.207Z,16.74
2022-09-14T03:11:59.569Z,16.78
2022-09-14T03:14:25.901Z,16.70
2022-09-14T03:16:52.300Z,16.74
2022-09-14T03:19:18.632Z,16.62
2022-09-14T03:21:45.050Z,16.77
2022-09-14T03:24:11.433Z,16.86
2022-09-14T03:26:38.629Z,16.94
2022-09-14T03:29:06.195Z,16.83
2022-09-14T03:31:33.841Z,16.90
2022-09-14T03:34:02.037Z,16.76
2022-09-14T03:36:29.868Z,16.82
2022-09-14T03:38:58.180Z,16.69
2022-09-14T03:41:25.018Z,16.74
2022-09-14T03:43:51.434Z,16.82
2022-09-14T03:46:22.858Z,16.92
2022-09-14T03:48:49.630Z,16.84
2022-09-14T03:51:16.405Z,16.92
2022-09-14T03:53:44.502Z,16.93
2022-09-14T03:56:16.180Z,16.90
2022-09-14T03:58:43.726Z,16.95
2022-09-14T04:01:12.682Z,16.95
2022-09-14T04:03:39.026Z,16.92
2022-09-14T04:06:05.942Z,16.80
2022-09-14T04:08:37.004Z,16.89
2022-09-14T04:11:12.307Z,16.74
2022-09-14T04:13:38.690Z,16.78
2022-09-14T04:16:05.403Z,16.78
2022-09-14T04:18:32.362Z,16.87
2022-09-14T04:21:04.483Z,16.95
2022-09-14T04:23:38.978Z,16.95
2022-09-14T04:26:18.652Z,16.86
2022-09-14T04:28:45.478Z,16.88
2022-09-14T04:31:12.434Z,16.92
2022-09-14T04:33:40.711Z,16.95
2022-09-14T04:36:09.562Z,16.87
2022-09-14T04:38:37.324Z,16.94
2022-09-14T04:41:09.475Z,17.07
2022-09-14T04:43:36.085Z,17.01
2022-09-14T04:46:04.287Z,17.04
2022-09-14T04:48:35.189Z,17.10
2022-09-14T04:51:03.202Z,17.16
2022-09-14T04:53:29.901Z,17.20
2022-09-14T04:56:00.895Z,17.22
2022-09-14T04:58:28.574Z,17.26
2022-09-14T05:00:55.969Z,17.24
2022-09-14T05:03:22.399Z,17.28
2022-09-14T05:05:48.757Z,17.31
2022-09-14T05:08:15.215Z,17.34
2022-09-14T05:10:41.659Z,17.39
2022-09-14T05:13:08.130Z,17.38
2022-09-14T05:15:34.518Z,17.53
2022-09-14T05:18:01.269Z,17.47
2022-09-14T05:20:27.678Z,17.42
2022-09-14T05:22:55.375Z,17.38
2022-09-14T05:25:21.710Z,17.40
2022-09-14T05:27:48.096Z,17.47
2022-09-14T05:30:15.038Z,17.52
2022-09-14T05:32:41.374Z,17.50
2022-09-14T05:35:08.220Z,17.60
2022-09-14T05:37:34.541Z,17.64
2022-09-14T05:40:00.902Z,17.69
2022-09-14T05:42:27.300Z,17.71
2022-09-14T05:44:53.639Z,17.73
2022-09-14T05:47:19.954Z,17.80
2022-09-14T05:49:46.421Z,17.81
2022-09-14T05:52:12.835Z,17.77
2022-09-14T05:54:39.138Z,17.70
2022-09-14T05:57:05.502Z,17.67
2022-09-14T05:59:32.201Z,17.73
2022-09-14T06:01:59.666Z,17.76
2022-09-14T06:04:26.135Z,17.87
2022-09-14T06:07:17.045Z,17.90
2022-09-14T06:09:38.910Z,18.04
2022-09-14T06:12:05.496Z,18.14
2022-09-14T06:14:31.804Z,18.12
2022-09-14T06:16:59.358Z,18.28
2022-09-14T06:19:25.846Z,18.56
2022-09-14T06:21:52.442Z,18.38
2022-09-14T06:24:18.946Z,18.34
2022-09-14T06:26:45.399Z,18.41
2022-09-14T06:29:11.728Z,18.38
2022-09-14T06:31:38.384Z,18.37
2022-09-14T06:34:05.145Z,18.51
2022-09-14T06:36:31.517Z,18.48
2022-09-14T06:39:00.013Z,18.49
2022-09-14T06:41:32.704Z,18.49
2022-09-14T06:44:01.811Z,18.46
2022-09-14T06:46:32.828Z,18.43
2022-09-14T06:49:07.987Z,18.41
2022-09-14T06:51:36.891Z,18.41
2022-09-14T06:54:03.868Z,18.36
2022-09-14T06:56:36.395Z,18.42
2022-09-14T06:59:03.843Z,18.29
2022-09-14T07:01:30.184Z,18.17
2022-09-14T07:03:58.272Z,18.29
2022-09-14T07:06:26.832Z,18.24
2022-09-14T07:08:53.711Z,18.27
2022-09-14T07:11:23.717Z,18.27
2022-09-14T07:13:50.088Z,18.31
2022-09-14T07:16:16.448Z,18.26
2022-09-14T07:18:43.918Z,18.21
2022-09-14T07:21:14.069Z,18.08
2022-09-14T07:23:42.365Z,18.10
2022-09-14T07:26:18.507Z,18.07
2022-09-14T07:28:46.663Z,18.00
2022-09-14T07:31:22.069Z,18.01
2022-09-14T07:33:53.319Z,18.01
2022-09-14T07:36:19.984Z,18.03
2022-09-14T07:38:52.543Z,18.05
2022-09-14T07:41:27.038Z,18.09
2022-09-14T07:43:56.626Z,18.14
2022-09-14T07:46:23.963Z,18.21
2022-09-14T07:48:55.702Z,18.31
2022-09-14T07:51:22.640Z,18.27
2022-09-14T07:53:49.969Z,18.21
2022-09-14T07:56:16.880Z,18.21
2022-09-14T07:58:44.218Z,18.27
2022-09-14T08:01:12.655Z,18.33
2022-09-14T08:03:40.538Z,18.34
2022-09-14T08:06:10.804Z,18.31
2022-09-14T08:08:38.635Z,18.27
2022-09-14T08:11:05.904Z,18.25
2022-09-14T08:13:35.548Z,18.32
2022-09-14T08:16:02.351Z,18.42
2022-09-14T08:18:30.198Z,18.52
2022-09-14T08:20:57.162Z,18.56
2022-09-14T08:23:23.962Z,18.58
2022-09-14T08:25:50.450Z,18.50
2022-09-14T08:28:16.771Z,18.46
2022-09-14T08:30:43.232Z,18.53
2022-09-14T08:33:09.581Z,18.57
2022-09-14T08:35:57.484Z,18.57
2022-09-14T08:38:28.385Z,18.62
2022-09-14T08:40:55.482Z,18.55
2022-09-14T08:43:23.285Z,18.58
2022-09-14T08:45:50.742Z,18.57
2022-09-14T08:48:27.999Z,18.59
2022-09-14T08:50:59.567Z,18.68
2022-09-14T08:53:26.563Z,18.59
2022-09-14T08:56:25.199Z,18.49
2022-09-14T08:59:15.287Z,18.54
2022-09-14T09:02:13.101Z,18.63
2022-09-14T09:04:49.256Z,18.62
2022-09-14T09:07:32.930Z,18.64
2022-09-14T09:10:01.326Z,18.65
2022-09-14T09:12:39.000Z,18.65
2022-09-14T09:15:29.067Z,18.58
2022-09-14T09:18:04.855Z,18.43
2022-09-14T09:20:46.153Z,18.30
2022-09-14T09:23:16.765Z,18.35
2022-09-14T09:25:58.221Z,18.37
2022-09-14T09:28:26.857Z,18.29
2022-09-14T09:30:54.571Z,18.48
2022-09-14T09:33:23.514Z,18.60
2022-09-14T09:35:51.154Z,18.58
2022-09-14T09:38:21.460Z,18.72
2022-09-14T09:40:56.736Z,18.49
2022-09-14T09:43:38.938Z,18.66
2022-09-14T09:46:11.578Z,18.97
2022-09-14T09:48:37.970Z,18.60
2022-09-14T09:51:13.409Z,18.45
2022-09-14T09:54:00.348Z,18.67
2022-09-14T09:56:29.538Z,18.43
2022-09-14T09:58:55.890Z,18.54
2022-09-14T10:01:34.688Z,18.66
2022-09-14T10:04:19.901Z,18.52
2022-09-14T10:06:51.374Z,18.64
2022-09-14T10:09:20.695Z,18.73
2022-09-14T10:11:48.494Z,18.75
2022-09-14T10:14:28.543Z,18.80
2022-09-14T10:17:08.443Z,18.69
2022-09-14T10:19:34.966Z,18.76
2022-09-14T10:22:04.896Z,18.88
2022-09-14T10:24:33.422Z,18.60
2022-09-14T10:27:00.092Z,18.81
2022-09-14T10:29:35.511Z,19.01
2022-09-14T10:32:22.445Z,19.16
2022-09-14T10:34:49.016Z,19.33
2022-09-14T10:37:46.161Z,19.52
2022-09-14T10:40:18.563Z,19.50
2022-09-14T10:43:13.271Z,19.54
2022-09-14T10:45:41.930Z,19.64
2022-09-14T10:48:24.033Z,19.69
2022-09-14T10:51:09.039Z,19.60
2022-09-14T10:54:04.986Z,19.50
2022-09-14T10:57:00.040Z,19.32
2022-09-14T10:59:32.475Z,19.32
2022-09-14T11:02:36.841Z,19.24
2022-09-14T11:05:22.760Z,19.23
2022-09-14T11:07:58.087Z,19.23
2022-09-14T11:10:54.027Z,19.23
2022-09-14T11:13:39.366Z,19.32
2022-09-14T11:16:23.409Z,19.35
2022-09-14T11:19:07.532Z,19.38
2022-09-14T11:21:51.380Z,19.28
2022-09-14T11:24:22.896Z,19.27
2022-09-14T11:26:59.409Z,19.20
2022-09-14T11:29:44.930Z,19.24
2022-09-14T11:32:21.298Z,19.33
2022-09-14T11:34:55.993Z,19.32
2022-09-14T11:37:30.308Z,19.30
2022-09-14T11:40:06.411Z,19.23
2022-09-14T11:42:37.676Z,19.18
2022-09-14T11:45:15.021Z,19.15
2022-09-14T11:47:48.771Z,19.14
2022-09-14T11:50:25.633Z,18.77
2022-09-14T11:53:02.160Z,18.84
2022-09-14T11:55:28.779Z,19.05
2022-09-14T11:57:55.302Z,19.15
2022-09-14T12:00:24.695Z,19.25
2022-09-14T12:02:58.476Z,19.29
2022-09-14T12:05:29.088Z,19.39
2022-09-14T12:08:04.436Z,19.41
2022-09-14T12:10:31.052Z,19.48
2022-09-14T12:13:04.316Z,19.42
2022-09-14T12:15:30.695Z,19.49
2022-09-14T12:18:06.258Z,19.54
2022-09-14T12:20:39.046Z,19.67
2022-09-14T12:23:27.446Z,19.21
2022-09-14T12:26:00.535Z,19.36
2022-09-14T12:28:36.195Z,19.43
2022-09-14T12:31:05.651Z,19.48
2022-09-14T12:33:34.734Z,19.57
2022-09-14T12:36:02.690Z,19.56
2022-09-14T12:38:28.991Z,19.62
2022-09-14T12:41:03.483Z,19.69
2022-09-14T12:43:32.950Z,19.72
2022-09-14T12:46:05.134Z,19.65
2022-09-14T12:48:55.576Z,19.64
2022-09-14T12:51:31.533Z,19.61
2022-09-14T12:54:35.050Z,19.73
2022-09-14T12:57:43.728Z,19.84
2022-09-14T13:00:16.836Z,19.90
2022-09-14T13:03:14.672Z,19.88
2022-09-14T13:05:44.046Z,20.02
2022-09-14T13:08:11.426Z,19.93
2022-09-14T13:10:44.856Z,20.01
2022-09-14T13:13:17.659Z,20.12
2022-09-14T13:16:13.355Z,19.90
2022-09-14T13:18:39.736Z,19.81
2022-09-14T13:21:22.310Z,19.71
2022-09-14T13:23:48.900Z,19.74
2022-09-14T13:26:24.843Z,19.80
2022-09-14T13:28:53.188Z,19.77
2022-09-14T13:31:30.675Z,19.62
2022-09-14T13:33:57.666Z,19.49
2022-09-14T13:36:27.246Z,19.50
2022-09-14T13:38:54.923Z,19.47
2022-09-14T13:41:22.977Z,19.46
2022-09-14T13:43:52.373Z,19.43
2022-09-14T13:46:20.583Z,19.59
2022-09-14T13:48:48.825Z,19.57
2022-09-14T13:51:16.043Z,19.47
2022-09-14T13:53:51.033Z,19.44
2022-09-14T13:56:26.481Z,19.43
2022-09-14T13:59:16.093Z,19.44
2022-09-14T14:01:54.804Z,19.16
2022-09-14T14:04:27.448Z,19.40
2022-09-14T14:07:12.698Z,19.54
2022-09-14T14:09:53.047Z,19.30
2022-09-14T14:12:26.746Z,18.97
2022-09-14T14:14:58.585Z,18.98
2022-09-14T14:17:33.254Z,18.72
2022-09-14T14:20:21.062Z,18.52
2022-09-14T14:22:58.284Z,18.63
2022-09-14T14:25:43.477Z,18.74
2022-09-14T14:28:18.929Z,18.69
2022-09-14T14:30:45.361Z,18.77
2022-09-14T14:33:19.895Z,18.51
2022-09-14T14:35:47.527Z,18.46
2022-09-14T14:38:14.351Z,18.34
2022-09-14T14:40:41.363Z,18.35
2022-09-14T14:43:17.366Z,18.35
2022-09-14T14:45:43.785Z,18.19
2022-09-14T14:48:11.481Z,18.31
2022-09-14T14:50:48.600Z,18.27
2022-09-14T14:53:15.496Z,18.26
2022-09-14T14:55:42.131Z,18.33
2022-09-14T14:58:15.375Z,18.32
2022-09-14T15:00:42.861Z,18.39
2022-09-14T15:03:09.538Z,18.34
2022-09-14T15:05:40.083Z,18.38
2022-09-14T15:08:06.736Z,18.33
2022-09-14T15:10:33.173Z,18.35
2022-09-14T15:12:59.821Z,18.37
2022-09-14T15:15:26.462Z,18.42
2022-09-14T15:17:53.505Z,18.39
2022-09-14T15:20:20.412Z,18.37
2022-09-14T15:22:51.360Z,18.32
2022-09-14T15:25:20.313Z,18.34
2022-09-14T15:27:47.093Z,18.31
2022-09-14T15:30:16.270Z,18.27
2022-09-14T15:32:42.651Z,18.26
2022-09-14T15:35:12.437Z,18.28
2022-09-14T15:37:41.506Z,18.23
2022-09-14T15:40:08.642Z,18.21
2022-09-14T15:42:36.123Z,18.24
2022-09-14T15:45:02.591Z,18.31
2022-09-14T15:47:31.709Z,18.25
2022-09-14T15:50:07.460Z,18.27
2022-09-14T15:52:38.183Z,18.34
2022-09-14T15:55:06.649Z,18.29
2022-09-14T15:57:33.324Z,18.28
2022-09-14T15:59:59.875Z,18.24
2022-09-14T16:02:27.365Z,18.22
2022-09-14T16:04:53.772Z,18.18
2022-09-14T16:07:20.250Z,18.13
2022-09-14T16:09:46.782Z,18.11
2022-09-14T16:12:13.504Z,18.06
2022-09-14T16:14:40.365Z,18.06
2022-09-14T16:17:08.181Z,18.04
2022-09-14T16:19:35.926Z,18.03
2022-09-14T16:22:02.623Z,18.06
2022-09-14T16:24:35.166Z,18.09
2022-09-14T16:27:01.654Z,18.11
2022-09-14T16:29:28.221Z,18.05
2022-09-14T16:31:54.856Z,18.08
2022-09-14T16:34:27.300Z,18.08
2022-09-14T16:36:54.310Z,18.05
2022-09-14T16:39:23.798Z,17.99
2022-09-14T16:41:50.575Z,17.99
2022-09-14T16:44:19.166Z,17.96
2022-09-14T16:46:46.086Z,17.97
2022-09-14T16:49:12.736Z,17.96
2022-09-14T16:51:39.306Z,17.92
2022-09-14T16:54:07.330Z,17.86
2022-09-14T16:56:36.567Z,17.82
2022-09-14T16:59:04.074Z,17.74
2022-09-14T17:01:36.381Z,17.65
2022-09-14T17:04:08.198Z,17.67
2022-09-14T17:06:35.838Z,17.66
2022-09-14T17:09:05.718Z,17.58
2022-09-14T17:11:34.026Z,17.53
2022-09-14T17:14:00.865Z,17.40
2022-09-14T17:16:28.255Z,17.40
2022-09-14T17:18:58.745Z,17.38
2022-09-14T17:21:29.325Z,17.38
2022-09-14T17:23:56.899Z,17.28
2022-09-14T17:26:24.021Z,17.24
2022-09-14T17:28:52.184Z,17.27
2022-09-14T17:31:21.058Z,17.32
2022-09-14T17:33:47.992Z,17.30
2022-09-14T17:36:15.706Z,17.31
2022-09-14T17:38:43.128Z,17.28
2022-09-14T17:41:12.170Z,17.22
2022-09-14T17:43:39.513Z,17.19
2022-09-14T17:46:07.793Z,17.20
2022-09-14T17:48:37.597Z,17.07
2022-09-14T17:51:06.275Z,17.08
2022-09-14T17:53:37.300Z,17.17
2022-09-14T17:56:06.311Z,17.14
2022-09-14T17:58:33.233Z,17.06
2022-09-14T18:01:14.834Z,16.98
2022-09-14T18:03:43.142Z,17.04
2022-09-14T18:06:12.124Z,17.09
2022-09-14T18:08:40.263Z,17.12
2022-09-14T18:11:09.962Z,17.16
2022-09-14T18:13:43.783Z,17.11
2022-09-14T18:16:10.985Z,17.17
2022-09-14T18:18:37.514Z,17.10
2022-09-14T18:21:04.628Z,17.12
2022-09-14T18:23:31.495Z,17.10
2022-09-14T18:25:58.001Z,17.00
2022-09-14T18:28:25.784Z,16.95
2022-09-14T18:31:01.206Z,16.96
2022-09-14T18:33:28.239Z,16.93
2022-09-14T18:35:56.225Z,16.95
2022-09-14T18:38:23.196Z,16.95
2022-09-14T18:40:49.861Z,16.98
2022-09-14T18:43:16.838Z,16.99
2022-09-14T18:45:44.213Z,17.00
2022-09-14T18:48:12.508Z,16.98
2022-09-14T18:50:39.688Z,16.90
2022-09-14T18:53:06.536Z,16.96
2022-09-14T18:55:33.683Z,17.01
2022-09-14T18:58:00.414Z,16.94
2022-09-14T19:00:26.827Z,16.90
2022-09-14T19:02:56.877Z,16.94
2022-09-14T19:05:24.899Z,16.83
2022-09-14T19:07:51.482Z,16.87
2022-09-14T19:10:18.082Z,16.81
2022-09-14T19:12:44.656Z,16.69
2022-09-14T19:15:12.359Z,16.63
2022-09-14T19:17:39.119Z,16.66
2022-09-14T19:20:08.095Z,16.57
2022-09-14T19:22:35.021Z,16.44
2022-09-14T19:25:02.032Z,16.49
2022-09-14T19:27:28.759Z,16.38
2022-09-14T19:29:55.504Z,16.35
2022-09-14T19:32:22.113Z,16.39
2022-09-14T19:34:50.955Z,16.48
2022-09-14T19:37:18.020Z,16.37
2022-09-14T19:39:44.592Z,16.35
2022-09-14T19:42:11.221Z,16.43
2022-09-14T19:44:38.926Z,16.42
2022-09-14T19:47:05.535Z,16.39
2022-09-14T19:49:33.114Z,16.41
2022-09-14T19:51:59.864Z,16.43
2022-09-14T19:54:26.504Z,16.40
2022-09-14T19:56:53.365Z,16.44
2022-09-14T19:59:20.489Z,16.45
2022-09-14T20:01:48.323Z,16.55
2022-09-14T20:04:15.752Z,16.26
2022-09-14T20:06:43.822Z,16.27
2022-09-14T20:09:13.405Z,16.30
2022-09-14T20:11:42.226Z,16.27
2022-09-14T20:14:12.997Z,16.33
2022-09-14T20:16:42.544Z,16.39
2022-09-14T20:19:13.948Z,16.42
2022-09-14T20:21:42.539Z,16.46
2022-09-14T20:24:16.111Z,16.46
2022-09-14T20:26:48.330Z,16.46
2022-09-14T20:29:16.596Z,16.44
2022-09-14T20:31:43.607Z,16.46
2022-09-14T20:34:10.291Z,16.46
2022-09-14T20:36:36.737Z,16.54
2022-09-14T20:39:03.740Z,16.56
2022-09-14T20:41:33.203Z,16.56
2022-09-14T20:44:00.343Z,16.32
2022-09-14T20:46:30.995Z,16.36
2022-09-14T20:48:59.721Z,16.41
2022-09-14T20:51:26.636Z,16.45
2022-09-14T20:53:53.758Z,16.50
2022-09-14T20:56:26.691Z,16.55
2022-09-14T20:58:54.978Z,16.33
2022-09-14T21:01:23.236Z,16.37
2022-09-14T21:03:52.683Z,16.34
2022-09-14T21:06:25.601Z,16.38
2022-09-14T21:08:52.209Z,16.42
2022-09-14T21:11:21.943Z,16.44
2022-09-14T21:13:48.948Z,16.42
2022-09-14T21:16:18.547Z,16.42
2022-09-14T21:18:46.535Z,16.36
2022-09-14T21:21:15.868Z,16.32
2022-09-14T21:23:42.705Z,16.24
2022-09-14T21:26:10.540Z,16.18
2022-09-14T21:28:38.178Z,16.17
2022-09-14T21:31:14.174Z,16.13
2022-09-14T21:33:42.724Z,16.16
2022-09-14T21:36:11.986Z,16.07
2022-09-14T21:38:38.745Z,16.09
2022-09-14T21:41:10.612Z,15.97
2022-09-14T21:43:40.945Z,16.01
2022-09-14T21:46:09.166Z,16.01
2022-09-14T21:48:36.543Z,15.88
2022-09-14T21:51:20.426Z,15.78
2022-09-14T21:53:49.616Z,15.86
2022-09-14T21:56:16.935Z,15.74
2022-09-14T21:58:43.982Z,15.80
2022-09-14T22:01:11.631Z,15.71
2022-09-14T22:03:38.970Z,15.67
2022-09-14T22:06:08.239Z,15.72
2022-09-14T22:08:35.418Z,15.82
2022-09-14T22:11:22.386Z,15.87
2022-09-14T22:13:54.329Z,15.74
2022-09-14T22:16:21.489Z,15.76
2022-09-14T22:18:52.066Z,15.66
2022-09-14T22:21:19.638Z,15.62
2022-09-14T22:23:55.393Z,15.69
2022-09-14T22:26:23.595Z,15.72
2022-09-14T22:28:51.624Z,15.58
2022-09-14T22:31:19.927Z,15.62
2022-09-14T22:33:47.470Z,15.51
2022-09-14T22:36:15.031Z,15.58
2022-09-14T22:38:41.862Z,15.67
2022-09-14T22:41:19.588Z,15.57
2022-09-14T22:43:46.570Z,15.57
2022-09-14T22:46:13.630Z,15.60
2022-09-14T22:48:43.532Z,15.63
2022-09-14T22:51:13.230Z,15.60
2022-09-14T22:53:39.982Z,15.60
2022-09-14T22:56:18.041Z,15.57
2022-09-14T22:58:45.715Z,15.65
2022-09-14T23:01:24.657Z,15.58
2022-09-14T23:03:59.411Z,15.52
2022-09-14T23:06:30.870Z,15.53
2022-09-14T23:08:58.056Z,15.53
2022-09-14T23:11:24.682Z,15.59
2022-09-14T23:13:51.394Z,15.63
2022-09-14T23:16:20.482Z,15.68
2022-09-14T23:18:55.950Z,15.65
2022-09-14T23:21:24.084Z,15.67
2022-09-14T23:23:55.134Z,15.67
2022-09-14T23:26:23.851Z,15.69
2022-09-14T23:28:55.272Z,15.66
2022-09-14T23:31:22.459Z,15.63
2022-09-14T23:33:55.358Z,15.62
2022-09-14T23:36:22.763Z,15.65
2022-09-14T23:38:49.595Z,15.63
2022-09-14T23:41:17.960Z,15.58
2022-09-14T23:43:45.422Z,15.65
2022-09-14T23:46:12.749Z,15.62
2022-09-14T23:48:44.191Z,15.62
2022-09-14T23:51:12.038Z,15.57
2022-09-14T23:53:39.245Z,15.55
2022-09-14T23:56:06.465Z,15.59
2022-09-14T23:58:32.898Z,15.59
